Terminal Aerodrome Forecast
Issued by NWS Twin Cities, MN

Home | Current Version | Previous Version | Text Only | Print | Product List | Glossary Off
Versions: 1 2 3 4 5 6 7 8 9 10 11 12 13 14 15

000
FTUS43 KMPX 182347
TAFEAU
TAF
KEAU 182347Z 1900/1924 32009KT P6SM OVC040
     FM190300 02010KT P6SM OVC250
     FM191500 35006KT P6SM BKN250
     FM191700 32007KT P6SM FEW200=

USA.gov is the U.S. government's official web portal to all federal, state and local government web resources and services.